sensor_id;sensor_type;location;lat;lon;timestamp;pressure;altitude;pressure_sealevel;temperature;humidity
1480;BME280;732;51.698;4.886;2023-09-19T00:00:44;100952.28;;;11.60;86.02
1480;BME280;732;51.698;4.886;2023-09-19T00:03:14;100755.28;;;10.41;85.12
1480;BME280;732;51.698;4.886;2023-09-19T00:05:43;100918.50;;;11.20;84.64
1480;BME280;732;51.698;4.886;2023-09-19T00:08:13;100851.44;;;10.82;84.52
1480;BME280;732;51.698;4.886;2023-09-19T00:10:43;100966.84;;;11.35;84.38
1480;BME280;732;51.698;4.886;2023-09-19T00:13:13;100956.84;;;11.29;84.34
1480;BME280;732;51.698;4.886;2023-09-19T00:15:44;100963.50;;;11.33;84.09
1480;BME280;732;51.698;4.886;2023-09-19T00:18:17;100918.75;;;10.96;83.24
1480;BME280;732;51.698;4.886;2023-09-19T00:20:48;100984.44;;;11.23;84.60
1480;BME280;732;51.698;4.886;2023-09-19T00:23:19;100981.81;;;11.15;84.52
1480;BME280;732;51.698;4.886;2023-09-19T00:25:49;100869.13;;;10.38;84.29
1480;BME280;732;51.698;4.886;2023-09-19T00:28:18;100965.88;;;10.98;84.78
1480;BME280;732;51.698;4.886;2023-09-19T00:30:47;100985.50;;;10.99;84.02
1480;BME280;732;51.698;4.886;2023-09-19T00:33:18;100958.78;;;10.59;84.79
1480;BME280;732;51.698;4.886;2023-09-19T00:35:51;100926.56;;;10.44;85.38
1480;BME280;732;51.698;4.886;2023-09-19T00:38:21;101002.41;;;10.84;85.76
1480;BME280;732;51.698;4.886;2023-09-19T00:40:55;100963.25;;;10.52;85.22
1480;BME280;732;51.698;4.886;2023-09-19T00:43:27;100998.78;;;10.77;85.47
1480;BME280;732;51.698;4.886;2023-09-19T00:45:57;100962.69;;;10.56;84.93
1480;BME280;732;51.698;4.886;2023-09-19T00:48:28;100913.47;;;10.26;84.69
1480;BME280;732;51.698;4.886;2023-09-19T00:50:58;101006.66;;;10.79;84.50
1480;BME280;732;51.698;4.886;2023-09-19T00:53:32;101010.53;;;10.76;84.91
1480;BME280;732;51.698;4.886;2023-09-19T00:56:03;101002.16;;;10.48;84.47
1480;BME280;732;51.698;4.886;2023-09-19T00:58:34;101022.31;;;10.44;84.25
1480;BME280;732;51.698;4.886;2023-09-19T01:01:05;100921.00;;;9.76;83.87
1480;BME280;732;51.698;4.886;2023-09-19T01:03:36;100950.84;;;9.96;83.68
1480;BME280;732;51.698;4.886;2023-09-19T01:06:05;100935.56;;;9.73;83.49
1480;BME280;732;51.698;4.886;2023-09-19T01:08:34;100996.31;;;9.89;83.85
1480;BME280;732;51.698;4.886;2023-09-19T01:11:18;100918.13;;;9.38;83.76
1480;BME280;732;51.698;4.886;2023-09-19T01:13:57;100913.94;;;9.27;83.65
1480;BME280;732;51.698;4.886;2023-09-19T01:16:35;101004.66;;;9.86;83.08
1480;BME280;732;51.698;4.886;2023-09-19T01:19:40;101026.19;;;10.10;82.82
1480;BME280;732;51.698;4.886;2023-09-19T01:22:19;100973.09;;;9.73;82.76
1480;BME280;732;51.698;4.886;2023-09-19T01:25:26;100996.34;;;9.73;82.55
1480;BME280;732;51.698;4.886;2023-09-19T01:28:20;101007.63;;;9.60;82.99
1480;BME280;732;51.698;4.886;2023-09-19T01:30:57;101025.50;;;9.68;82.20
1480;BME280;732;51.698;4.886;2023-09-19T01:33:27;100921.03;;;9.03;82.18
1480;BME280;732;51.698;4.886;2023-09-19T01:36:01;101041.44;;;9.61;82.53
1480;BME280;732;51.698;4.886;2023-09-19T01:38:30;101032.72;;;9.59;82.11
1480;BME280;732;51.698;4.886;2023-09-19T01:41:07;100823.38;;;8.26;81.45
1480;BME280;732;51.698;4.886;2023-09-19T01:43:42;101033.91;;;9.56;81.29
1480;BME280;732;51.698;4.886;2023-09-19T01:46:17;101041.50;;;9.45;82.09
1480;BME280;732;51.698;4.886;2023-09-19T01:48:57;100962.22;;;9.02;82.25
1480;BME280;732;51.698;4.886;2023-09-19T01:51:34;101038.44;;;9.56;81.41
1480;BME280;732;51.698;4.886;2023-09-19T01:54:10;101034.28;;;9.45;81.51
1480;BME280;732;51.698;4.886;2023-09-19T01:56:47;101032.59;;;9.44;80.35
1480;BME280;732;51.698;4.886;2023-09-19T01:59:23;101032.59;;;9.44;80.53
1480;BME280;732;51.698;4.886;2023-09-19T02:01:57;100981.41;;;9.22;80.29
1480;BME280;732;51.698;4.886;2023-09-19T02:04:26;100990.25;;;9.23;79.86
1480;BME280;732;51.698;4.886;2023-09-19T02:06:56;101036.78;;;9.47;80.00
1480;BME280;732;51.698;4.886;2023-09-19T02:09:26;101014.69;;;9.36;80.30
1480;BME280;732;51.698;4.886;2023-09-19T02:11:54;101031.91;;;9.50;79.46
1480;BME280;732;51.698;4.886;2023-09-19T02:14:23;101008.69;;;9.26;79.75
1480;BME280;732;51.698;4.886;2023-09-19T02:16:51;101045.63;;;9.55;79.77
1480;BME280;732;51.698;4.886;2023-09-19T02:19:20;101041.31;;;9.38;79.25
1480;BME280;732;51.698;4.886;2023-09-19T02:21:49;101036.47;;;9.41;78.75
1480;BME280;732;51.698;4.886;2023-09-19T02:24:17;100980.44;;;8.99;78.29
1480;BME280;732;51.698;4.886;2023-09-19T02:26:46;101038.63;;;9.46;78.52
1480;BME280;732;51.698;4.886;2023-09-19T02:29:14;101051.19;;;9.37;78.16
1480;BME280;732;51.698;4.886;2023-09-19T02:31:42;100991.28;;;8.97;78.85
1480;BME280;732;51.698;4.886;2023-09-19T02:34:14;101051.84;;;9.39;78.40
1480;BME280;732;51.698;4.886;2023-09-19T02:36:44;100942.31;;;8.72;77.69
1480;BME280;732;51.698;4.886;2023-09-19T02:39:13;101040.50;;;9.37;78.25
1480;BME280;732;51.698;4.886;2023-09-19T02:41:41;101042.81;;;9.40;77.95
1480;BME280;732;51.698;4.886;2023-09-19T02:44:10;101001.69;;;9.08;77.30
1480;BME280;732;51.698;4.886;2023-09-19T02:46:38;101053.00;;;9.37;77.30
1480;BME280;732;51.698;4.886;2023-09-19T02:49:08;101053.16;;;9.27;77.84
1480;BME280;732;51.698;4.886;2023-09-19T02:51:37;101029.59;;;9.14;76.85
1480;BME280;732;51.698;4.886;2023-09-19T02:54:07;101059.88;;;9.39;76.89
1480;BME280;732;51.698;4.886;2023-09-19T02:56:36;100940.81;;;8.86;76.32
1480;BME280;732;51.698;4.886;2023-09-19T02:59:05;100954.84;;;8.79;75.41
1480;BME280;732;51.698;4.886;2023-09-19T03:01:34;101026.59;;;9.09;76.83
1480;BME280;732;51.698;4.886;2023-09-19T03:04:04;101057.84;;;9.33;76.26
1480;BME280;732;51.698;4.886;2023-09-19T03:06:38;101057.84;;;9.33;76.62
1480;BME280;732;51.698;4.886;2023-09-19T03:09:08;100922.28;;;8.43;76.46
1480;BME280;732;51.698;4.886;2023-09-19T03:11:38;101057.53;;;9.28;76.29
1480;BME280;732;51.698;4.886;2023-09-19T03:14:07;101043.47;;;9.18;75.88
1480;BME280;732;51.698;4.886;2023-09-19T03:16:35;101008.22;;;8.98;75.67
1480;BME280;732;51.698;4.886;2023-09-19T03:19:04;101054.34;;;9.33;75.82
1480;BME280;732;51.698;4.886;2023-09-19T03:21:33;101052.34;;;9.35;75.38
1480;BME280;732;51.698;4.886;2023-09-19T03:24:02;101022.06;;;9.18;75.38
1480;BME280;732;51.698;4.886;2023-09-19T03:26:33;101056.19;;;9.32;75.23
1480;BME280;732;51.698;4.886;2023-09-19T03:29:04;101049.50;;;9.28;74.91
1480;BME280;732;51.698;4.886;2023-09-19T03:31:34;101048.31;;;9.31;75.00
1480;BME280;732;51.698;4.886;2023-09-19T03:34:07;101039.28;;;9.32;75.51
1480;BME280;732;51.698;4.886;2023-09-19T03:36:36;100961.72;;;8.82;75.44
1480;BME280;732;51.698;4.886;2023-09-19T03:39:04;101024.44;;;9.21;75.43
1480;BME280;732;51.698;4.886;2023-09-19T03:41:34;101033.09;;;9.31;75.38
1480;BME280;732;51.698;4.886;2023-09-19T03:44:04;100975.75;;;9.09;74.90
1480;BME280;732;51.698;4.886;2023-09-19T03:46:33;100906.56;;;8.48;75.51
1480;BME280;732;51.698;4.886;2023-09-19T03:49:02;101034.59;;;9.34;75.54
1480;BME280;732;51.698;4.886;2023-09-19T03:51:31;101041.63;;;9.26;75.17
1480;BME280;732;51.698;4.886;2023-09-19T03:54:01;101039.09;;;9.33;75.59
1480;BME280;732;51.698;4.886;2023-09-19T03:56:32;101038.63;;;9.38;75.92
1480;BME280;732;51.698;4.886;2023-09-19T03:59:01;101039.78;;;9.35;75.32
1480;BME280;732;51.698;4.886;2023-09-19T04:01:30;101027.75;;;9.23;76.48
1480;BME280;732;51.698;4.886;2023-09-19T04:04:00;101033.94;;;9.32;76.24
1480;BME280;732;51.698;4.886;2023-09-19T04:06:36;101034.28;;;9.20;76.33
1480;BME280;732;51.698;4.886;2023-09-19T04:09:05;101057.38;;;9.30;77.36
1480;BME280;732;51.698;4.886;2023-09-19T04:11:38;101060.06;;;9.38;77.15
1480;BME280;732;51.698;4.886;2023-09-19T04:14:07;100951.69;;;8.68;76.61
1480;BME280;732;51.698;4.886;2023-09-19T04:16:36;101067.59;;;9.42;76.75
1480;BME280;732;51.698;4.886;2023-09-19T04:19:04;100953.03;;;8.64;77.03
1480;BME280;732;51.698;4.886;2023-09-19T04:21:33;100974.09;;;8.91;76.75
1480;BME280;732;51.698;4.886;2023-09-19T04:24:01;101082.31;;;9.55;76.65
1480;BME280;732;51.698;4.886;2023-09-19T04:26:29;100997.81;;;8.94;77.00
1480;BME280;732;51.698;4.886;2023-09-19T04:28:58;101092.16;;;9.63;76.77
1480;BME280;732;51.698;4.886;2023-09-19T04:31:29;101062.91;;;9.45;76.86
1480;BME280;732;51.698;4.886;2023-09-19T04:33:58;101091.66;;;9.59;76.75
1480;BME280;732;51.698;4.886;2023-09-19T04:36:32;101107.91;;;9.57;76.82
1480;BME280;732;51.698;4.886;2023-09-19T04:39:02;101104.72;;;9.54;77.21
1480;BME280;732;51.698;4.886;2023-09-19T04:41:34;101040.63;;;9.19;76.44
1480;BME280;732;51.698;4.886;2023-09-19T04:44:05;101085.31;;;9.52;76.57
1480;BME280;732;51.698;4.886;2023-09-19T04:46:35;101051.66;;;9.33;76.94
1480;BME280;732;51.698;4.886;2023-09-19T04:49:04;101019.03;;;9.29;76.79
1480;BME280;732;51.698;4.886;2023-09-19T04:51:32;101106.69;;;9.77;76.74
1480;BME280;732;51.698;4.886;2023-09-19T04:54:04;101105.50;;;9.87;76.59
1480;BME280;732;51.698;4.886;2023-09-19T04:56:32;101105.84;;;9.84;76.55
1480;BME280;732;51.698;4.886;2023-09-19T04:59:01;101070.09;;;9.52;76.83
1480;BME280;732;51.698;4.886;2023-09-19T05:01:29;101107.69;;;9.75;77.10
1480;BME280;732;51.698;4.886;2023-09-19T05:03:59;101103.81;;;9.86;77.01
1480;BME280;732;51.698;4.886;2023-09-19T05:06:28;101112.69;;;9.95;76.44
1480;BME280;732;51.698;4.886;2023-09-19T05:08:57;101115.53;;;9.94;76.70
1480;BME280;732;51.698;4.886;2023-09-19T05:11:27;100994.13;;;9.20;76.90
1480;BME280;732;51.698;4.886;2023-09-19T05:13:57;101113.19;;;9.90;77.77
1480;BME280;732;51.698;4.886;2023-09-19T05:16:29;101105.66;;;9.94;77.68
1480;BME280;732;51.698;4.886;2023-09-19T05:19:00;101108.81;;;9.98;77.65
1480;BME280;732;51.698;4.886;2023-09-19T05:21:30;101110.34;;;9.92;77.71
1480;BME280;732;51.698;4.886;2023-09-19T05:24:00;101110.06;;;9.79;78.38
1480;BME280;732;51.698;4.886;2023-09-19T05:26:29;101103.63;;;9.96;78.21
1480;BME280;732;51.698;4.886;2023-09-19T05:28:57;101005.81;;;9.27;78.17
1480;BME280;732;51.698;4.886;2023-09-19T05:31:26;101114.34;;;9.96;78.94
1480;BME280;732;51.698;4.886;2023-09-19T05:33:55;101113.06;;;9.84;79.72
1480;BME280;732;51.698;4.886;2023-09-19T05:36:24;101109.88;;;9.88;80.02
1480;BME280;732;51.698;4.886;2023-09-19T05:38:53;101099.31;;;9.87;79.47
1480;BME280;732;51.698;4.886;2023-09-19T05:41:21;101097.66;;;9.86;80.14
1480;BME280;732;51.698;4.886;2023-09-19T05:43:49;101115.34;;;10.03;80.04
1480;BME280;732;51.698;4.886;2023-09-19T05:46:18;101110.69;;;9.97;80.20
1480;BME280;732;51.698;4.886;2023-09-19T05:48:46;101093.09;;;9.86;80.08
1480;BME280;732;51.698;4.886;2023-09-19T05:51:17;101125.06;;;9.96;80.85
1480;BME280;732;51.698;4.886;2023-09-19T05:53:51;101118.53;;;9.99;80.62
1480;BME280;732;51.698;4.886;2023-09-19T05:56:21;101110.50;;;9.99;80.72
1480;BME280;732;51.698;4.886;2023-09-19T05:58:50;101061.50;;;9.65;80.40
1480;BME280;732;51.698;4.886;2023-09-19T06:01:19;101066.00;;;9.81;80.35
1480;BME280;732;51.698;4.886;2023-09-19T06:03:48;101118.16;;;10.18;79.80
1480;BME280;732;51.698;4.886;2023-09-19T06:06:16;101130.31;;;10.29;79.71
1480;BME280;732;51.698;4.886;2023-09-19T06:08:44;101101.75;;;10.13;80.08
1480;BME280;732;51.698;4.886;2023-09-19T06:11:14;101135.84;;;10.28;79.92
1480;BME280;732;51.698;4.886;2023-09-19T06:13:43;101085.00;;;10.03;79.51
1480;BME280;732;51.698;4.886;2023-09-19T06:16:14;101138.63;;;10.51;79.61
1480;BME280;732;51.698;4.886;2023-09-19T06:18:42;101133.47;;;10.41;79.64
1480;BME280;732;51.698;4.886;2023-09-19T06:21:12;101136.66;;;10.36;79.98
1480;BME280;732;51.698;4.886;2023-09-19T06:23:40;101147.06;;;10.39;79.56
1480;BME280;732;51.698;4.886;2023-09-19T06:26:11;101110.72;;;10.29;79.55
1480;BME280;732;51.698;4.886;2023-09-19T06:28:42;101140.13;;;10.53;79.32
1480;BME280;732;51.698;4.886;2023-09-19T06:31:12;101144.78;;;10.60;79.12
1480;BME280;732;51.698;4.886;2023-09-19T06:33:40;100980.84;;;9.52;79.29
1480;BME280;732;51.698;4.886;2023-09-19T06:36:10;101058.56;;;10.00;79.46
1480;BME280;732;51.698;4.886;2023-09-19T06:38:38;101147.50;;;10.51;79.74
1480;BME280;732;51.698;4.886;2023-09-19T06:41:08;101106.16;;;10.37;79.61
1480;BME280;732;51.698;4.886;2023-09-19T06:43:37;101145.41;;;10.70;79.08
1480;BME280;732;51.698;4.886;2023-09-19T06:46:08;101140.13;;;10.53;79.24
1480;BME280;732;51.698;4.886;2023-09-19T06:48:36;101092.75;;;10.37;78.97
1480;BME280;732;51.698;4.886;2023-09-19T06:51:05;101145.19;;;10.80;78.76
1480;BME280;732;51.698;4.886;2023-09-19T06:53:33;101111.41;;;10.62;78.48
1480;BME280;732;51.698;4.886;2023-09-19T06:56:03;101151.53;;;10.87;78.60
1480;BME280;732;51.698;4.886;2023-09-19T06:58:33;101143.59;;;10.94;78.40
1480;BME280;732;51.698;4.886;2023-09-19T07:01:04;101157.56;;;10.89;78.26
1480;BME280;732;51.698;4.886;2023-09-19T07:03:33;101154.31;;;11.02;78.25
1480;BME280;732;51.698;4.886;2023-09-19T07:06:04;101154.88;;;11.12;77.78
1480;BME280;732;51.698;4.886;2023-09-19T07:08:32;101154.69;;;11.14;77.50
1480;BME280;732;51.698;4.886;2023-09-19T07:11:01;101140.63;;;11.12;78.04
1480;BME280;732;51.698;4.886;2023-09-19T07:13:32;101148.81;;;11.18;78.50
1480;BME280;732;51.698;4.886;2023-09-19T07:16:00;101089.22;;;10.77;78.73
1480;BME280;732;51.698;4.886;2023-09-19T07:18:29;101133.34;;;10.97;78.65
1480;BME280;732;51.698;4.886;2023-09-19T07:21:00;101140.03;;;11.01;78.63
1480;BME280;732;51.698;4.886;2023-09-19T07:23:32;101133.13;;;11.07;78.35
1480;BME280;732;51.698;4.886;2023-09-19T07:26:02;101105.50;;;10.98;78.20
1480;BME280;732;51.698;4.886;2023-09-19T07:28:33;101171.25;;;11.26;78.11
1480;BME280;732;51.698;4.886;2023-09-19T07:31:04;101134.72;;;11.16;77.59
1480;BME280;732;51.698;4.886;2023-09-19T07:33:34;101160.84;;;11.46;77.58
1480;BME280;732;51.698;4.886;2023-09-19T07:36:04;101109.81;;;11.23;77.34
1480;BME280;732;51.698;4.886;2023-09-19T07:38:33;101127.63;;;11.62;76.54
1480;BME280;732;51.698;4.886;2023-09-19T07:41:02;101149.50;;;11.74;76.70
1480;BME280;732;51.698;4.886;2023-09-19T07:43:32;101162.56;;;11.85;76.06
1480;BME280;732;51.698;4.886;2023-09-19T07:46:04;101164.13;;;11.94;76.29
1480;BME280;732;51.698;4.886;2023-09-19T07:48:34;101151.34;;;11.96;76.26
1480;BME280;732;51.698;4.886;2023-09-19T07:51:05;101104.53;;;11.67;75.71
1480;BME280;732;51.698;4.886;2023-09-19T07:53:35;101160.16;;;12.05;75.56
1480;BME280;732;51.698;4.886;2023-09-19T07:56:06;101171.19;;;11.95;75.36
1480;BME280;732;51.698;4.886;2023-09-19T07:58:39;101176.75;;;11.94;75.69
1480;BME280;732;51.698;4.886;2023-09-19T08:01:10;101147.44;;;11.61;75.38
1480;BME280;732;51.698;4.886;2023-09-19T08:03:40;101134.84;;;11.61;75.63
1480;BME280;732;51.698;4.886;2023-09-19T08:06:12;101164.06;;;12.03;74.96
1480;BME280;732;51.698;4.886;2023-09-19T08:08:41;101158.75;;;12.24;74.32
1480;BME280;732;51.698;4.886;2023-09-19T08:11:09;101169.69;;;12.53;73.47
1480;BME280;732;51.698;4.886;2023-09-19T08:13:39;101021.72;;;11.86;72.61
1480;BME280;732;51.698;4.886;2023-09-19T08:16:10;101169.28;;;12.71;72.19
1480;BME280;732;51.698;4.886;2023-09-19T08:18:39;101042.66;;;12.06;72.07
1480;BME280;732;51.698;4.886;2023-09-19T08:21:08;101172.66;;;12.94;71.28
1480;BME280;732;51.698;4.886;2023-09-19T08:23:40;100985.13;;;11.85;70.95
1480;BME280;732;51.698;4.886;2023-09-19T08:26:09;101176.03;;;12.96;71.51
1480;BME280;732;51.698;4.886;2023-09-19T08:28:37;101127.44;;;12.90;70.68
1480;BME280;732;51.698;4.886;2023-09-19T08:31:08;101165.50;;;13.23;70.10
1480;BME280;732;51.698;4.886;2023-09-19T08:33:38;101099.75;;;13.18;69.86
1480;BME280;732;51.698;4.886;2023-09-19T08:36:07;101127.72;;;13.67;68.17
1480;BME280;732;51.698;4.886;2023-09-19T08:38:36;101163.47;;;14.04;68.55
1480;BME280;732;51.698;4.886;2023-09-19T08:41:07;101081.16;;;13.79;67.19
1480;BME280;732;51.698;4.886;2023-09-19T08:43:36;101128.69;;;14.16;66.55
1480;BME280;732;51.698;4.886;2023-09-19T08:46:10;101138.44;;;14.17;66.46
1480;BME280;732;51.698;4.886;2023-09-19T08:48:46;101156.94;;;14.26;66.78
1480;BME280;732;51.698;4.886;2023-09-19T08:51:22;101150.75;;;14.33;67.56
1480;BME280;732;51.698;4.886;2023-09-19T08:54:01;101161.03;;;14.51;66.11
1480;BME280;732;51.698;4.886;2023-09-19T08:56:34;101157.25;;;14.45;66.29
1480;BME280;732;51.698;4.886;2023-09-19T08:59:07;101154.91;;;14.35;66.42
1480;BME280;732;51.698;4.886;2023-09-19T09:01:36;101158.34;;;14.57;65.83
1480;BME280;732;51.698;4.886;2023-09-19T09:04:08;101118.72;;;14.23;65.40
1480;BME280;732;51.698;4.886;2023-09-19T09:06:41;101112.84;;;14.06;65.82
1480;BME280;732;51.698;4.886;2023-09-19T09:09:15;101144.88;;;14.16;66.91
1480;BME280;732;51.698;4.886;2023-09-19T09:11:45;101142.78;;;14.11;67.11
1480;BME280;732;51.698;4.886;2023-09-19T09:14:17;101114.69;;;13.99;66.36
1480;BME280;732;51.698;4.886;2023-09-19T09:16:46;101160.72;;;14.32;66.93
1480;BME280;732;51.698;4.886;2023-09-19T09:19:16;101145.91;;;14.63;67.02
1480;BME280;732;51.698;4.886;2023-09-19T09:21:51;101099.78;;;14.71;64.53
1480;BME280;732;51.698;4.886;2023-09-19T09:24:30;101103.19;;;14.94;64.08
1480;BME280;732;51.698;4.886;2023-09-19T09:27:04;101131.72;;;15.36;65.03
1480;BME280;732;51.698;4.886;2023-09-19T09:29:42;101117.38;;;15.09;62.84
1480;BME280;732;51.698;4.886;2023-09-19T09:32:22;101147.72;;;15.11;64.51
1480;BME280;732;51.698;4.886;2023-09-19T09:34:53;101149.81;;;15.09;64.49
1480;BME280;732;51.698;4.886;2023-09-19T09:37:26;101081.06;;;14.56;64.08
1480;BME280;732;51.698;4.886;2023-09-19T09:39:57;101106.28;;;14.84;63.78
1480;BME280;732;51.698;4.886;2023-09-19T09:42:35;101140.03;;;15.15;64.25
1480;BME280;732;51.698;4.886;2023-09-19T09:45:17;101126.31;;;15.23;62.68
1480;BME280;732;51.698;4.886;2023-09-19T09:47:55;101140.03;;;15.48;63.44
1480;BME280;732;51.698;4.886;2023-09-19T09:50:26;101128.59;;;15.86;61.60
1480;BME280;732;51.698;4.886;2023-09-19T09:52:56;101147.94;;;15.97;60.42
1480;BME280;732;51.698;4.886;2023-09-19T09:56:01;101131.06;;;16.01;61.92
1480;BME280;732;51.698;4.886;2023-09-19T09:58:35;101058.09;;;15.48;60.32
1480;BME280;732;51.698;4.886;2023-09-19T10:01:05;101072.38;;;15.82;61.60
1480;BME280;732;51.698;4.886;2023-09-19T10:03:39;101150.09;;;16.40;60.84
1480;BME280;732;51.698;4.886;2023-09-19T10:06:10;101125.41;;;16.16;60.08
1480;BME280;732;51.698;4.886;2023-09-19T10:09:00;101089.44;;;15.82;59.80
1480;BME280;732;51.698;4.886;2023-09-19T10:11:42;101031.47;;;15.45;62.22
1480;BME280;732;51.698;4.886;2023-09-19T10:14:16;101143.16;;;15.99;60.91
1480;BME280;732;51.698;4.886;2023-09-19T10:16:48;101115.00;;;16.07;61.06
1480;BME280;732;51.698;4.886;2023-09-19T10:19:24;101114.75;;;16.22;60.31
1480;BME280;732;51.698;4.886;2023-09-19T10:22:00;101132.28;;;16.06;60.47
1480;BME280;732;51.698;4.886;2023-09-19T10:24:30;101129.28;;;16.27;58.96
1480;BME280;732;51.698;4.886;2023-09-19T10:27:05;100924.84;;;15.14;59.25
1480;BME280;732;51.698;4.886;2023-09-19T10:29:39;101119.63;;;16.45;59.39
1480;BME280;732;51.698;4.886;2023-09-19T10:32:09;101128.47;;;16.79;59.32
1480;BME280;732;51.698;4.886;2023-09-19T10:34:40;101109.59;;;16.52;58.08
1480;BME280;732;51.698;4.886;2023-09-19T10:37:13;101085.59;;;16.17;57.90
1480;BME280;732;51.698;4.886;2023-09-19T10:39:46;101095.47;;;15.98;58.05
1480;BME280;732;51.698;4.886;2023-09-19T10:42:19;101000.69;;;15.46;58.51
1480;BME280;732;51.698;4.886;2023-09-19T10:44:52;101094.44;;;15.92;59.26
1480;BME280;732;51.698;4.886;2023-09-19T10:47:23;101061.28;;;16.03;59.54
1480;BME280;732;51.698;4.886;2023-09-19T10:49:52;101088.84;;;16.39;58.19
1480;BME280;732;51.698;4.886;2023-09-19T10:52:24;100980.38;;;15.95;57.67
1480;BME280;732;51.698;4.886;2023-09-19T10:54:56;101088.91;;;16.71;58.20
1480;BME280;732;51.698;4.886;2023-09-19T10:57:26;101090.34;;;16.67;57.47
1480;BME280;732;51.698;4.886;2023-09-19T11:00:05;101055.25;;;16.47;56.56
1480;BME280;732;51.698;4.886;2023-09-19T11:03:20;101084.00;;;16.87;55.64
1480;BME280;732;51.698;4.886;2023-09-19T11:06:13;101094.28;;;17.10;55.39
1480;BME280;732;51.698;4.886;2023-09-19T11:08:59;101039.75;;;16.61;54.53
1480;BME280;732;51.698;4.886;2023-09-19T11:11:53;101078.56;;;17.19;54.76
1480;BME280;732;51.698;4.886;2023-09-19T11:14:41;101059.84;;;17.61;52.45
1480;BME280;732;51.698;4.886;2023-09-19T11:17:37;101049.97;;;18.04;52.71
1480;BME280;732;51.698;4.886;2023-09-19T11:20:22;101041.53;;;17.93;52.85
1480;BME280;732;51.698;4.886;2023-09-19T11:23:23;100999.59;;;17.71;52.36
1480;BME280;732;51.698;4.886;2023-09-19T11:25:54;101012.25;;;17.40;53.19
1480;BME280;732;51.698;4.886;2023-09-19T11:28:33;101025.06;;;17.51;54.00
1480;BME280;732;51.698;4.886;2023-09-19T11:31:52;101050.56;;;18.06;52.51
1480;BME280;732;51.698;4.886;2023-09-19T11:34:48;101044.00;;;17.95;53.25
1480;BME280;732;51.698;4.886;2023-09-19T11:38:04;101050.97;;;17.72;53.29
1480;BME280;732;51.698;4.886;2023-09-19T11:40:39;101043.25;;;17.69;53.36
1480;BME280;732;51.698;4.886;2023-09-19T11:43:31;101055.66;;;17.40;53.65
1480;BME280;732;51.698;4.886;2023-09-19T11:46:07;101025.56;;;17.41;54.92
1480;BME280;732;51.698;4.886;2023-09-19T11:48:38;101035.50;;;17.73;53.08
1480;BME280;732;51.698;4.886;2023-09-19T11:51:18;101000.44;;;17.71;53.26
1480;BME280;732;51.698;4.886;2023-09-19T11:53:56;101020.56;;;18.31;53.21
1480;BME280;732;51.698;4.886;2023-09-19T11:56:27;101034.66;;;17.91;52.62
1480;BME280;732;51.698;4.886;2023-09-19T11:58:56;101052.03;;;17.21;54.22
1480;BME280;732;51.698;4.886;2023-09-19T12:01:31;100937.69;;;16.29;55.48
1480;BME280;732;51.698;4.886;2023-09-19T12:04:03;101005.47;;;16.48;56.40
1480;BME280;732;51.698;4.886;2023-09-19T12:06:34;101044.06;;;16.75;55.70
1480;BME280;732;51.698;4.886;2023-09-19T12:09:04;101005.13;;;16.38;56.29
1480;BME280;732;51.698;4.886;2023-09-19T12:11:42;100998.94;;;16.24;57.31
1480;BME280;732;51.698;4.886;2023-09-19T12:14:11;101004.47;;;16.03;57.15
1480;BME280;732;51.698;4.886;2023-09-19T12:16:54;101037.81;;;16.36;57.81
1480;BME280;732;51.698;4.886;2023-09-19T12:19:25;101020.59;;;16.24;56.72
1480;BME280;732;51.698;4.886;2023-09-19T12:21:57;101016.72;;;16.45;57.69
1480;BME280;732;51.698;4.886;2023-09-19T12:24:27;101023.34;;;16.17;57.25
1480;BME280;732;51.698;4.886;2023-09-19T12:27:02;101038.19;;;16.08;58.00
1480;BME280;732;51.698;4.886;2023-09-19T12:29:43;101014.09;;;15.93;58.12
1480;BME280;732;51.698;4.886;2023-09-19T12:32:12;101011.41;;;15.93;58.39
1480;BME280;732;51.698;4.886;2023-09-19T12:34:51;101036.81;;;15.71;59.80
1480;BME280;732;51.698;4.886;2023-09-19T12:37:23;101019.78;;;15.64;58.49
1480;BME280;732;51.698;4.886;2023-09-19T12:40:05;101000.84;;;15.64;58.25
1480;BME280;732;51.698;4.886;2023-09-19T12:42:44;101024.94;;;15.79;58.76
1480;BME280;732;51.698;4.886;2023-09-19T12:45:12;101006.44;;;15.83;58.65
1480;BME280;732;51.698;4.886;2023-09-19T12:48:19;101043.97;;;16.18;58.51
1480;BME280;732;51.698;4.886;2023-09-19T12:51:05;101042.59;;;15.88;58.26
1480;BME280;732;51.698;4.886;2023-09-19T12:53:37;101053.25;;;15.70;58.86
1480;BME280;732;51.698;4.886;2023-09-19T12:56:09;101042.69;;;15.62;58.89
1480;BME280;732;51.698;4.886;2023-09-19T12:58:53;101044.09;;;15.78;59.02
1480;BME280;732;51.698;4.886;2023-09-19T13:01:23;101017.41;;;15.95;58.65
1480;BME280;732;51.698;4.886;2023-09-19T13:04:12;101006.09;;;16.11;58.15
1480;BME280;732;51.698;4.886;2023-09-19T13:06:42;101003.19;;;16.06;58.15
1480;BME280;732;51.698;4.886;2023-09-19T13:09:13;101051.97;;;16.38;58.39
1480;BME280;732;51.698;4.886;2023-09-19T13:11:43;101053.16;;;16.10;58.95
1480;BME280;732;51.698;4.886;2023-09-19T13:14:19;101034.91;;;15.99;59.32
1480;BME280;732;51.698;4.886;2023-09-19T13:17:00;101061.31;;;16.49;57.96
1480;BME280;732;51.698;4.886;2023-09-19T13:19:40;101002.22;;;15.94;58.33
1480;BME280;732;51.698;4.886;2023-09-19T13:22:40;101060.09;;;16.38;58.16
1480;BME280;732;51.698;4.886;2023-09-19T13:25:14;101043.47;;;16.66;57.40
1480;BME280;732;51.698;4.886;2023-09-19T13:27:47;101043.72;;;17.22;56.90
1480;BME280;732;51.698;4.886;2023-09-19T13:30:19;100946.88;;;16.53;56.25
1480;BME280;732;51.698;4.886;2023-09-19T13:32:48;101027.97;;;17.31;56.35
1480;BME280;732;51.698;4.886;2023-09-19T13:35:17;101046.16;;;17.49;56.55
1480;BME280;732;51.698;4.886;2023-09-19T13:37:47;101010.41;;;17.15;56.01
1480;BME280;732;51.698;4.886;2023-09-19T13:40:17;101028.38;;;16.84;55.54
1480;BME280;732;51.698;4.886;2023-09-19T13:42:45;100989.88;;;16.43;56.24
1480;BME280;732;51.698;4.886;2023-09-19T13:45:14;101015.13;;;16.69;56.89
1480;BME280;732;51.698;4.886;2023-09-19T13:47:44;101012.09;;;16.52;56.43
1480;BME280;732;51.698;4.886;2023-09-19T13:50:13;101002.63;;;16.68;57.96
1480;BME280;732;51.698;4.886;2023-09-19T13:52:41;101008.69;;;16.63;57.00
1480;BME280;732;51.698;4.886;2023-09-19T13:55:10;101018.91;;;16.93;56.59